Time;durP1;ratioP1;P1;durP2;ratioP2;P2;SDS_P1;SDS_P2;PMS_P1;PMS_P2;Temp;Humidity;BMP_temperature;BMP_pressure;BME280_temperature;BME280_humidity;BME280_pressure;Samples;Min_cycle;Max_cycle;Signal;HPM_P1;HPM_P2
2021/07/17 00:03:55;;;;;;;26.33;19.83;;;;;;;23.49;100.00;100413.59;20892619;28;20267;-63
2021/07/17 00:13:55;;;;;;;22.30;18.37;;;;;;;23.45;100.00;100407.63;20876155;28;20213;-62
2021/07/17 00:23:56;;;;;;;22.77;19.23;;;;;;;23.55;100.00;100401.97;20892164;28;20231;-62
2021/07/17 00:33:57;;;;;;;27.90;18.23;;;;;;;23.78;100.00;100412.91;20880101;28;20321;-62
2021/07/17 00:43:57;;;;;;;19.90;15.40;;;;;;;23.81;100.00;100423.44;20883121;28;20253;-64
2021/07/17 00:54:00;;;;;;;22.83;17.87;;;;;;;23.90;100.00;100433.28;20889148;28;20213;-62
2021/07/17 01:04:00;;;;;;;23.97;17.83;;;;;;;23.90;100.00;100436.00;20871402;28;20248;-62
2021/07/17 01:14:01;;;;;;;19.67;17.43;;;;;;;23.81;100.00;100434.34;20867561;28;20325;-61
2021/07/17 01:24:04;;;;;;;22.07;17.30;;;;;;;24.04;100.00;100427.84;20880721;28;20723;-63
2021/07/17 01:34:04;;;;;;;23.10;17.33;;;;;;;23.99;100.00;100411.22;20891395;28;20632;-61
2021/07/17 01:44:06;;;;;;;20.60;16.10;;;;;;;23.95;100.00;100398.13;20869716;28;20222;-63
2021/07/17 01:54:13;;;;;;;20.80;15.90;;;;;;;23.87;100.00;100390.03;20903608;28;20234;-64
2021/07/17 02:04:13;;;;;;;19.40;16.30;;;;;;;23.83;100.00;100364.16;20891123;28;20673;-66
2021/07/17 02:14:14;;;;;;;19.77;17.07;;;;;;;23.72;100.00;100365.44;20895766;28;20235;-62
2021/07/17 02:24:15;;;;;;;20.23;16.87;;;;;;;23.68;100.00;100361.38;20898148;28;20226;-62
2021/07/17 02:34:16;;;;;;;16.60;14.80;;;;;;;23.63;100.00;100372.81;20885040;28;20700;-61
2021/07/17 02:44:16;;;;;;;19.37;16.93;;;;;;;23.53;100.00;100395.91;20902600;28;20238;-66
2021/07/17 02:54:17;;;;;;;16.60;14.47;;;;;;;23.37;100.00;100387.78;20878923;28;20470;-62
2021/07/17 03:04:18;;;;;;;14.40;13.03;;;;;;;23.81;100.00;100383.41;20900006;28;20235;-63
2021/07/17 03:14:18;;;;;;;12.07;10.97;;;;;;;24.61;100.00;100372.78;20879118;28;20250;-63
2021/07/17 03:24:19;;;;;;;12.17;11.13;;;;;;;25.75;100.00;100402.19;20898125;28;20759;-62
2021/07/17 03:34:19;;;;;;;11.17;10.23;;;;;;;27.32;100.00;100399.94;20882491;28;20465;-64
2021/07/17 03:44:24;;;;;;;10.17;9.33;;;;;;;29.09;100.00;100412.09;20889660;28;20230;-64
2021/07/17 03:54:25;;;;;;;9.40;8.50;;;;;;;30.47;98.75;100426.91;20889881;28;20215;-66
2021/07/17 04:04:26;;;;;;;7.60;7.00;;;;;;;32.59;94.10;100423.09;20889341;28;20224;-67
2021/07/17 04:14:26;;;;;;;6.68;6.00;;;;;;;34.15;88.98;100427.50;20968589;28;20219;-65
2021/07/17 04:24:27;;;;;;;7.15;6.55;;;;;;;34.96;82.13;100426.06;20954156;28;20270;-65
2021/07/17 04:34:27;;;;;;;8.32;7.45;;;;;;;35.47;72.97;100418.41;20958958;28;20223;-65
2021/07/17 04:44:28;;;;;;;6.07;5.57;;;;;;;36.68;76.15;100433.50;20953969;28;20214;-66
2021/07/17 04:54:28;;;;;;;6.85;5.90;;;;;;;36.20;74.29;100428.91;20946129;28;20734;-70
2021/07/17 05:04:36;;;;;;;7.65;7.00;;;;;;;35.21;78.41;100426.41;20874574;28;20720;-67
2021/07/17 05:14:36;;;;;;;7.72;7.10;;;;;;;31.98;98.50;100438.13;20889076;28;20338;-67
2021/07/17 05:24:37;;;;;;;7.75;7.00;;;;;;;29.59;100.00;100424.97;20896670;28;20227;-68
2021/07/17 05:34:38;;;;;;;8.70;7.67;;;;;;;28.80;100.00;100414.28;20891022;28;20226;-65
2021/07/17 05:44:38;;;;;;;8.60;7.87;;;;;;;27.76;99.12;100415.94;20909329;28;20218;-64
2021/07/17 05:54:39;;;;;;;13.47;7.97;;;;;;;27.73;100.00;100416.34;20892467;28;20223;-64
2021/07/17 06:04:39;;;;;;;8.60;7.80;;;;;;;27.86;100.00;100413.63;20834963;28;20735;-65
2021/07/17 06:14:40;;;;;;;7.97;7.27;;;;;;;28.18;100.00;100418.31;20797140;28;20247;-64
2021/07/17 06:24:41;;;;;;;8.77;7.33;;;;;;;28.28;100.00;100421.50;20910383;28;20215;-62
2021/07/17 06:34:41;;;;;;;7.53;6.93;;;;;;;28.78;100.00;100424.63;20991116;28;20218;-64
2021/07/17 06:44:42;;;;;;;7.67;6.97;;;;;;;28.97;100.00;100428.41;20993705;28;20264;-61
2021/07/17 06:54:56;;;;;;;7.83;7.03;;;;;;;28.75;99.12;100427.78;20992968;28;20222;-63
2021/07/17 07:04:56;;;;;;;8.17;7.37;;;;;;;28.84;100.00;100426.53;20950000;28;20337;-58
2021/07/17 07:14:57;;;;;;;7.90;7.20;;;;;;;29.02;100.00;100437.69;20899026;28;20213;-57
2021/07/17 07:24:57;;;;;;;8.10;7.40;;;;;;;28.96;100.00;100435.81;20876886;28;20239;-58
2021/07/17 07:34:57;;;;;;;7.93;7.13;;;;;;;29.16;100.00;100443.97;20896696;28;20235;-64
2021/07/17 07:44:58;;;;;;;7.30;6.60;;;;;;;29.70;100.00;100460.06;20879353;28;20224;-61
2021/07/17 07:54:59;;;;;;;7.28;6.63;;;;;;;30.27;100.00;100461.00;20970812;28;20234;-67
2021/07/17 08:04:59;;;;;;;6.93;6.15;;;;;;;30.80;100.00;100463.28;20960954;28;20222;-61
2021/07/17 08:15:00;;;;;;;6.78;6.10;;;;;;;31.20;100.00;100476.69;20971470;28;20229;-60
2021/07/17 08:25:01;;;;;;;7.00;6.32;;;;;;;31.22;92.36;100469.88;20950324;28;20578;-66
2021/07/17 08:35:01;;;;;;;7.10;5.80;;;;;;;31.46;100.00;100479.13;20955521;28;20674;-62
2021/07/17 08:45:04;;;;;;;6.50;5.90;;;;;;;32.07;98.20;100472.59;20988728;28;20242;-72
2021/07/17 08:55:07;;;;;;;6.47;5.80;;;;;;;33.13;95.91;100472.50;20953259;28;20218;-71
2021/07/17 09:05:11;;;;;;;6.95;5.90;;;;;;;32.70;95.70;100455.44;20973190;28;20687;-61
2021/07/17 09:15:26;;;;;;;7.55;6.22;;;;;;;31.64;88.50;100447.97;20951313;28;20218;-62
2021/07/17 09:25:39;;;;;;;7.95;6.32;;;;;;;30.89;83.87;100448.16;20884331;28;20307;-61
2021/07/17 09:35:46;;;;;;;9.10;6.10;;;;;;;31.30;94.47;100432.88;20877630;28;20278;-62
2021/07/17 09:45:47;;;;;;;6.82;6.13;;;;;;;31.74;100.00;100429.75;20882394;28;20264;-64
2021/07/17 09:55:47;;;;;;;7.95;6.57;;;;;;;31.54;93.34;100442.94;20879475;28;20220;-68
2021/07/17 10:05:55;;;;;;;8.02;7.15;;;;;;;31.25;87.02;100427.22;20874183;28;20578;-68
2021/07/17 10:15:57;;;;;;;8.10;6.80;;;;;;;32.03;90.64;100421.66;20902583;28;20315;-67
2021/07/17 10:25:57;;;;;;;7.25;6.68;;;;;;;32.65;98.10;100411.06;20858218;28;20310;-63
2021/07/17 10:36:03;;;;;;;9.27;7.40;;;;;;;32.69;81.39;100404.00;20895755;28;20227;-70
2021/07/17 10:46:03;;;;;;;7.95;7.18;;;;;;;32.72;84.60;100409.09;20887685;28;20227;-65
2021/07/17 10:56:29;;;;;;;7.78;7.18;;;;;;;34.19;71.92;100403.75;20894348;28;20216;-69
2021/07/17 11:06:33;;;;;;;7.65;5.68;;;;;;;35.51;81.47;100402.91;20794480;28;20302;-67
2021/07/17 11:16:51;;;;;;;6.78;6.07;;;;;;;35.46;66.95;100383.44;20813378;28;20305;-68
2021/07/17 11:27:07;;;;;;;5.80;5.32;;;;;;;35.32;66.13;100375.50;20799550;28;20539;-70
2021/07/17 11:37:10;;;;;;;9.18;6.07;;;;;;;36.20;82.80;100376.13;20824428;28;20227;-69
2021/07/17 11:47:22;;;;;;;10.32;6.47;;;;;;;37.81;64.82;100368.84;20827863;28;20293;-67
2021/07/17 11:57:24;;;;;;;8.55;5.70;;;;;;;39.21;75.11;100351.38;20819862;28;20246;-69
2021/07/17 12:07:27;;;;;;;7.22;6.40;;;;;;;38.29;69.58;100342.41;20829360;28;20774;-68
2021/07/17 12:17:28;;;;;;;6.78;6.25;;;;;;;37.82;65.47;100331.53;20838684;28;20239;-65
2021/07/17 12:27:29;;;;;;;7.60;6.85;;;;;;;36.44;68.00;100310.72;20859366;28;20235;-66
2021/07/17 12:37:30;;;;;;;6.55;6.00;;;;;;;36.26;70.40;100299.19;20838917;28;20247;-67
2021/07/17 12:47:31;;;;;;;7.32;6.63;;;;;;;35.92;68.12;100291.16;20856910;28;20278;-63
2021/07/17 12:57:34;;;;;;;8.52;7.28;;;;;;;35.46;64.67;100291.81;20794509;28;20254;-64
2021/07/17 13:07:41;;;;;;;8.70;7.32;;;;;;;35.29;61.76;100278.06;20796958;28;20804;-64
2021/07/17 13:17:43;;;;;;;10.50;7.45;;;;;;;34.90;63.09;100264.28;20817778;28;20795;-63
2021/07/17 13:27:44;;;;;;;8.50;7.18;;;;;;;34.56;59.24;100255.25;20869330;28;20442;-69
2021/07/17 13:37:46;;;;;;;7.85;7.03;;;;;;;34.79;60.02;100251.41;20887006;28;20224;-70
2021/07/17 13:47:47;;;;;;;7.97;6.22;;;;;;;35.12;57.05;100253.16;20882934;28;20242;-66
2021/07/17 13:57:49;;;;;;;7.07;6.47;;;;;;;35.29;57.07;100258.63;20904533;28;20230;-70
2021/07/17 14:07:49;;;;;;;7.20;6.35;;;;;;;35.94;56.87;100260.34;20881584;28;20279;-68
2021/07/17 14:17:50;;;;;;;6.38;5.78;;;;;;;36.81;54.51;100258.91;20898490;28;20268;-72
2021/07/17 14:27:52;;;;;;;6.28;5.72;;;;;;;37.49;52.74;100266.88;20888893;28;20219;-73
2021/07/17 14:37:53;;;;;;;7.38;5.93;;;;;;;36.97;54.90;100247.53;20891184;28;20231;-66
2021/07/17 14:47:53;;;;;;;6.35;5.72;;;;;;;36.84;55.17;100233.31;20921766;28;20227;-67
2021/07/17 14:57:54;;;;;;;7.35;5.93;;;;;;;36.48;53.28;100226.75;20965469;28;20282;-64
2021/07/17 15:07:54;;;;;;;6.72;6.18;;;;;;;36.11;56.19;100227.63;20982700;28;20234;-65
2021/07/17 15:17:55;;;;;;;6.20;5.63;;;;;;;36.19;55.99;100217.97;20960833;28;20890;-64
2021/07/17 15:27:55;;;;;;;6.00;5.43;;;;;;;36.83;54.75;100203.84;20933045;28;20824;-64
2021/07/17 15:37:56;;;;;;;6.72;5.97;;;;;;;37.18;51.38;100206.72;20796863;28;20293;-64
2021/07/17 15:47:59;;;;;;;7.60;5.95;;;;;;;37.21;49.27;100200.59;20835201;28;20226;-64
2021/07/17 15:58:01;;;;;;;6.70;6.10;;;;;;;36.95;49.76;100183.00;20877518;28;20297;-65
2021/07/17 16:08:03;;;;;;;8.85;8.05;;;;;;;36.35;52.02;100161.41;20877004;28;20677;-65
2021/07/17 16:18:11;;;;;;;6.82;6.05;;;;;;;35.94;48.97;100160.34;20851783;28;20806;-69
2021/07/17 16:28:11;;;;;;;6.22;5.65;;;;;;;36.50;53.49;100169.78;20793473;28;20232;-65
2021/07/17 16:38:12;;;;;;;6.45;5.90;;;;;;;36.84;51.29;100174.91;20807524;28;20700;-64
2021/07/17 16:48:12;;;;;;;7.20;6.00;;;;;;;36.02;51.34;100199.53;20785379;28;20228;-64
2021/07/17 16:58:13;;;;;;;6.57;5.78;;;;;;;35.33;51.49;100191.25;20806550;28;20220;-67
2021/07/17 17:08:13;;;;;;;7.05;6.35;;;;;;;35.28;51.72;100185.63;20787264;28;20312;-64
2021/07/17 17:18:20;;;;;;;7.78;7.10;;;;;;;34.15;51.41;100186.50;20805522;28;20801;-65
2021/07/17 17:28:22;;;;;;;7.22;6.63;;;;;;;33.66;52.65;100188.25;20793493;28;20219;-67
2021/07/17 17:38:23;;;;;;;8.07;6.28;;;;;;;33.45;53.65;100181.56;20781603;28;20274;-67
2021/07/17 17:48:23;;;;;;;7.05;6.45;;;;;;;33.06;55.56;100183.34;20799699;28;20220;-70
2021/07/17 17:58:23;;;;;;;7.07;6.47;;;;;;;31.64;58.77;100186.66;20791347;28;20295;-66
2021/07/17 18:08:24;;;;;;;7.38;6.68;;;;;;;30.54;62.79;100191.72;20805080;28;20290;-66
2021/07/17 18:18:25;;;;;;;8.00;7.33;;;;;;;29.67;65.81;100179.09;20783022;28;20212;-66
2021/07/17 18:28:25;;;;;;;7.87;7.23;;;;;;;28.78;68.60;100174.66;20830887;28;20722;-68
2021/07/17 18:38:26;;;;;;;7.50;6.80;;;;;;;28.17;71.00;100152.31;20896198;28;20216;-65
2021/07/17 18:48:27;;;;;;;10.50;7.13;;;;;;;27.47;73.12;100186.81;20897649;28;20462;-66
2021/07/17 18:58:27;;;;;;;7.77;7.07;;;;;;;27.15;76.74;100203.06;20885987;28;20300;-67
2021/07/17 19:08:28;;;;;;;7.57;6.93;;;;;;;27.03;77.38;100190.19;20871820;28;20222;-66
2021/07/17 19:18:32;;;;;;;8.57;7.73;;;;;;;26.23;83.02;100193.63;20890049;28;20578;-66
2021/07/17 19:28:33;;;;;;;7.73;6.97;;;;;;;26.09;82.02;100199.03;20882918;28;20332;-67
2021/07/17 19:38:34;;;;;;;8.20;6.97;;;;;;;25.95;83.28;100180.88;20879828;28;20227;-67
2021/07/17 19:48:34;;;;;;;7.10;6.50;;;;;;;25.85;83.21;100158.50;20857908;28;20689;-67
2021/07/17 19:58:35;;;;;;;7.47;6.53;;;;;;;25.62;85.15;100166.13;20901848;28;20219;-66
2021/07/17 20:08:36;;;;;;;7.90;7.00;;;;;;;25.36;88.26;100178.53;20905347;28;20222;-74
2021/07/17 20:18:36;;;;;;;7.83;7.03;;;;;;;25.18;90.82;100253.81;20905309;28;20306;-66
2021/07/17 20:28:39;;;;;;;9.47;8.57;;;;;;;25.09;94.89;100294.06;20905297;28;20250;-66
2021/07/17 20:59:41;;;;;;;4.80;3.90;;;;;;;25.63;82.24;100315.41;20691669;27;8342428;-72
2021/07/17 21:09:41;;;;;;;4.57;4.17;;;;;;;25.31;84.04;100327.69;21054757;28;20309;-65
2021/07/17 21:19:42;;;;;;;3.80;2.93;;;;;;;25.08;84.37;100319.66;21055034;28;20254;-68
2021/07/17 21:29:43;;;;;;;2.83;2.63;;;;;;;24.78;83.48;100308.75;21120007;28;20210;-72
2021/07/17 21:39:43;;;;;;;2.73;2.00;;;;;;;24.98;82.40;100308.22;21115938;28;20259;-68
2021/07/17 21:49:44;;;;;;;3.70;1.90;;;;;;;24.93;83.19;100288.81;21136789;28;20237;-67
2021/07/17 21:59:44;;;;;;;1.90;1.80;;;;;;;24.90;84.26;100300.09;21084039;28;20233;-75
2021/07/17 22:09:45;;;;;;;2.43;2.30;;;;;;;24.77;86.58;100282.50;21079165;28;20601;-66
2021/07/17 22:19:46;;;;;;;2.70;2.50;;;;;;;24.72;88.30;100284.97;21078542;28;20306;-70
2021/07/17 22:29:46;;;;;;;2.80;2.60;;;;;;;24.58;90.09;100272.19;21043456;28;21297;-76
2021/07/17 22:39:46;;;;;;;3.30;3.00;;;;;;;24.39;92.88;100240.88;21076934;28;20334;-66
2021/07/17 22:49:47;;;;;;;2.93;2.80;;;;;;;24.22;94.90;100214.84;21057781;28;20289;-67
2021/07/17 22:59:48;;;;;;;4.07;3.77;;;;;;;24.13;98.04;100198.75;20997765;28;20272;-67
2021/07/17 23:09:49;;;;;;;5.47;5.07;;;;;;;24.06;99.51;100194.03;20972044;28;20329;-66
2021/07/17 23:19:49;;;;;;;5.17;4.77;;;;;;;23.95;100.00;100191.78;20990055;28;20762;-66
2021/07/17 23:29:50;;;;;;;5.87;5.30;;;;;;;23.85;100.00;100201.28;20989333;28;20221;-66
2021/07/17 23:39:50;;;;;;;5.17;4.77;;;;;;;23.86;100.00;100201.09;20988446;28;20227;-75
2021/07/17 23:49:57;;;;;;;7.00;4.70;;;;;;;23.67;100.00;100193.47;20969448;28;20220;-68
2021/07/17 23:59:57;;;;;;;7.10;6.40;;;;;;;23.54;100.00;100188.69;20887400;28;20227;-69
